Latest Weather Observations for Gannett Cay

IDQ60801

Issued at 11:32 pm EST Friday 15 November 2019 (issued every 10 minutes, with the page automatically refreshed every 10 minutes)

About weather observations | Map of weather stations | Latest weather observations for QLD | Other Formats
Station Details ID: 200831 Name: GANNET CAY Lat: -21.98 Lon: 152.47 Height: 2.3 m
Data from the previous 72 hours. | See also: Recent months for locations in Queensland
Date/Time
EST
Temp
°C
App
Temp
°C
Dew
Point
°C
Rel
Hum
%
Delta-T
°C
Wind Press
QNH
hPa
Press
MSL
hPa
Rain since
9am
mm
Dir  Spd
km/h
Gust
km/h
Spd
kts
Gust
kts
15/11:30pm 24.5 - - - - NE 15 19 8 10 1016.1 1016.1 -
15/11:00pm 24.5 - - - - NE 17 20 9 11 1016.0 1016.0 -
15/10:30pm 24.6 - - - - NE 19 20 10 11 1016.1 1016.1 -
15/10:00pm 24.6 - - - - NE 19 20 10 11 1016.1 1016.1 -
15/09:30pm 24.7 - - - - NE 17 20 9 11 1016.1 1016.1 -
15/09:00pm 24.7 - - - - NE 17 20 9 11 1015.8 1015.8 -
15/08:30pm 24.7 - - - - NE 17 19 9 10 1015.5 1015.5 -
15/08:00pm 24.8 - - - - NE 17 19 9 10 1015.4 1015.4 -
15/07:30pm 24.8 - - - - NE 19 20 10 11 1014.9 1014.9 -
15/07:00pm 24.8 - - - - NE 20 22 11 12 1014.5 1014.5 -
15/06:30pm 24.9 - - - - NE 22 24 12 13 1014.1 1014.1 -
15/06:00pm 24.9 - - - - NNE 15 17 8 9 1013.7 1013.7 -
15/05:30pm 24.9 - - - - NNE 17 20 9 11 1013.5 1013.5 -
15/05:00pm 25.0 - - - - NNE 17 17 9 9 1013.3 1013.3 -
15/04:30pm 25.0 - - - - NNE 15 19 8 10 1013.2 1013.2 -
15/04:00pm 25.0 - - - - NE 13 15 7 8 1013.2 1013.2 -
15/03:30pm 25.0 - - - - NE 13 17 7 9 1013.3 1013.3 -
15/03:00pm 25.0 - - - - NE 13 15 7 8 1013.4 1013.4 -
15/01:00pm 25.0 - - - - CALM 0 13 0 7 1014.2 1014.2 -
15/12:30pm 25.0 - - - - - - - - - 1014.4 1014.4 -
15/12:00pm 25.0 - - - - - - - - - 1014.5 1014.5 -
15/11:30am 25.0 - - - - - - - - - 1014.9 1014.9 -
15/11:00am 25.0 - - - - - - - - - 1015.3 1015.3 -
15/10:30am 25.1 - - - - - - - - - 1015.6 1015.6 -
15/10:00am 25.0 - - - - - - - - - 1015.6 1015.6 -
15/09:30am 25.1 - - - - - - - - - 1015.7 1015.7 -
15/09:00am 24.9 - - - - - - - - - 1015.7 1015.7 -
15/08:30am 25.2 - - - - - - - - - 1015.4 1015.4 -
15/08:00am 24.9 - - - - - - - - - 1015.2 1015.2 -
15/07:30am 24.7 - - - - - - - - - 1015.0 1015.0 -
15/07:00am 24.7 - - - - - - - - - 1014.7 1014.7 -
15/06:30am 24.5 - - - - - - - - - 1014.4 1014.4 -
15/06:00am 24.4 - - - - - - - - - 1014.1 1014.1 -
15/05:30am 24.3 - - - - - - - - - 1013.6 1013.6 -
15/05:00am 24.3 - - - - - - - - - 1013.1 1013.1 -
15/04:30am 24.2 - - - - - - - - - 1012.8 1012.8 -
15/04:00am 24.2 - - - - - - - - - 1012.6 1012.6 -
15/03:30am 24.2 - - - - - - - - - 1012.3 1012.3 -
15/03:00am 24.2 - - - - - - - - - 1012.3 1012.3 -
15/02:30am 24.3 - - - - - - - - - 1012.2 1012.2 -
15/02:00am 24.4 - - - - - - - - - 1012.3 1012.3 -
15/01:30am 24.5 - - - - - - - - - 1012.4 1012.4 -
15/01:00am 24.4 - - - - - - - - - 1012.7 1012.7 -
15/12:30am 24.5 - - - - - - - - - 1013.2 1013.2 -
15/12:00am 24.6 - - - - - - - - - 1013.5 1013.5 -
 
Date/Time
EST
Temp
°C
App
Temp
°C
Dew
Point
°C
Rel
Hum
%
Delta-T
°C
Wind Press
QNH
hPa
Press
MSL
hPa
Rain since
9am
mm
Dir  Spd
km/h
Gust
km/h
Spd
kts
Gust
kts
14/11:30pm 24.6 - - - - - - - - - 1013.8 1013.8 -
14/11:00pm 24.6 - - - - - - - - - 1013.8 1013.8 -
14/10:30pm 24.7 - - - - - - - - - 1014.2 1014.2 -
14/10:00pm 24.7 - - - - - - - - - 1014.2 1014.2 -
14/09:30pm 24.7 - - - - - - - - - 1014.2 1014.2 -
14/09:00pm 24.7 - - - - - - - - - 1014.3 1014.3 -
14/08:30pm 24.7 - - - - - - - - - 1014.2 1014.2 -
14/08:00pm 24.7 - - - - - - - - - 1014.0 1014.0 -
14/07:30pm 24.8 - - - - - - - - - 1013.7 1013.7 -
14/07:00pm 24.8 - - - - - - - - - 1013.5 1013.5 -
14/06:30pm 24.8 - - - - - - - - - 1013.3 1013.3 -
14/06:00pm 24.8 - - - - - - - - - 1013.1 1013.1 -
14/05:30pm 25.0 - - - - - - - - - 1012.8 1012.8 -
14/05:00pm 26.1 - - - - - - - - - 1012.7 1012.7 -
14/04:30pm 26.8 - - - - - - - - - 1012.4 1012.4 -
14/04:00pm 25.6 - - - - - - - - - 1012.3 1012.3 -
14/03:30pm 25.8 - - - - - - - - - 1012.2 1012.2 -
14/03:00pm 25.7 - - - - - - - - - 1012.3 1012.3 -
14/02:30pm 25.6 - - - - - - - - - 1012.6 1012.6 -
14/02:00pm 25.8 - - - - - - - - - 1012.9 1012.9 -
14/01:30pm 25.5 - - - - - - - - - 1013.3 1013.3 -
14/01:00pm 25.3 - - - - - - - - - 1013.7 1013.7 -
14/12:30pm 25.3 - - - - - - - - - 1014.1 1014.1 -
14/12:00pm 25.4 - - - - - - - - - 1014.5 1014.5 -
14/11:30am 25.3 - - - - - - - - - 1014.9 1014.9 -
14/11:00am 25.2 - - - - - - - - - 1015.0 1015.0 -
14/10:30am 25.1 - - - - - - - - - 1015.2 1015.2 -
14/10:00am 25.1 - - - - - - - - - 1015.4 1015.4 -
14/09:30am 25.1 - - - - - - - - - 1015.5 1015.5 -
14/09:00am 25.0 - - - - - - - - - 1015.6 1015.6 -
14/08:30am 24.9 - - - - - - - - - 1015.3 1015.3 -
14/08:00am 24.8 - - - - - - - - - 1014.9 1014.9 -
14/07:30am 24.8 - - - - - - - - - 1014.5 1014.5 -
14/07:00am 24.7 - - - - - - - - - 1014.2 1014.2 -
14/06:30am 24.7 - - - - - - - - - 1013.9 1013.9 -
14/06:00am 24.6 - - - - - - - - - 1013.5 1013.5 -
14/05:30am 24.7 - - - - - - - - - 1013.3 1013.3 -
14/05:00am 24.6 - - - - - - - - - 1012.9 1012.9 -
14/04:30am 24.6 - - - - - - - - - 1012.5 1012.5 -
14/04:00am 24.6 - - - - - - - - - 1012.1 1012.1 -
14/03:30am 24.5 - - - - - - - - - 1011.7 1011.7 -
14/03:00am 24.6 - - - - - - - - - 1011.9 1011.9 -
14/02:30am 24.7 - - - - - - - - - 1012.2 1012.2 -
14/02:00am 24.7 - - - - - - - - - 1011.2 1011.2 -
14/01:30am 24.7 - - - - - - - - - 1011.3 1011.3 -
14/01:00am 24.7 - - - - - - - - - 1011.7 1011.7 -
14/12:30am 24.7 - - - - - - - - - 1012.1 1012.1 -
14/12:00am 24.8 - - - - - - - - - 1012.4 1012.4 -
 
Date/Time
EST
Temp
°C
App
Temp
°C
Dew
Point
°C
Rel
Hum
%
Delta-T
°C
Wind Press
QNH
hPa
Press
MSL
hPa
Rain since
9am
mm
Dir  Spd
km/h
Gust
km/h
Spd
kts
Gust
kts
13/11:30pm 24.8 - - - - - - - - - 1012.5 1012.5 -
13/11:00pm 24.7 - - - - - - - - - 1012.6 1012.6 -
13/10:30pm 24.8 - - - - - - - - - 1012.8 1012.8 -
13/10:00pm 24.7 - - - - - - - - - 1013.0 1013.0 -
13/09:30pm 24.8 - - - - - - - - - 1013.2 1013.2 -
13/09:00pm 24.8 - - - - - - - - - 1013.2 1013.2 -
13/08:30pm 24.7 - - - - - - - - - 1013.2 1013.2 -
13/08:00pm 24.8 - - - - - - - - - 1013.1 1013.1 -
13/07:30pm 24.8 - - - - - - - - - 1012.7 1012.7 -
13/07:00pm 24.8 - - - - - - - - - 1012.4 1012.4 -
13/06:30pm 24.8 - - - - - - - - - 1012.1 1012.1 -
13/06:00pm 24.8 - - - - - - - - - 1012.0 1012.0 -
13/05:30pm 24.8 - - - - - - - - - 1011.7 1011.7 -
13/05:00pm 24.9 - - - - - - - - - 1011.7 1011.7 -
13/04:30pm 25.0 - - - - - - - - - 1011.7 1011.7 -
13/04:00pm 25.1 - - - - - - - - - 1011.7 1011.7 -
13/03:30pm 25.1 - - - - - - - - - 1011.7 1011.7 -
13/03:00pm 25.1 - - - - - - - - - 1012.1 1012.1 -
13/02:30pm 25.1 - - - - - - - - - 1012.5 1012.5 -
13/02:00pm 25.0 - - - - - - - - - 1012.8 1012.8 -
13/01:30pm 24.9 - - - - - - - - - 1013.0 1013.0 -
13/01:00pm 25.0 - - - - - - - - - 1013.4 1013.4 -
13/12:30pm 24.9 - - - - - - - - - 1013.6 1013.6 -
13/12:00pm 24.9 - - - - - - - - - 1014.0 1014.0 -
13/11:30am 24.9 - - - - - - - - - 1014.3 1014.3 -
13/11:00am 24.8 - - - - - - - - - 1014.4 1014.4 -
13/10:30am 24.8 - - - - - - - - - 1014.7 1014.7 -
13/10:00am 24.7 - - - - - - - - - 1014.8 1014.8 -
13/09:30am 24.6 - - - - - - - - - 1015.0 1015.0 -
13/09:00am 24.7 - - - - - - - - - 1015.2 1015.2 -
13/08:30am 24.5 - - - - - - - - - 1015.1 1015.1 -
13/08:00am 24.5 - - - - - - - - - 1015.0 1015.0 -
13/07:30am 24.4 - - - - - - - - - 1014.6 1014.6 -
13/07:00am 24.4 - - - - - - - - - 1014.5 1014.5 -
13/06:30am 24.3 - - - - - - - - - 1014.2 1014.2 -
13/06:00am 24.4 - - - - - - - - - 1014.2 1014.2 -
13/05:30am 24.3 - - - - - - - - - 1013.9 1013.9 -
13/05:00am 24.2 - - - - - - - - - 1013.8 1013.8 -
13/04:30am 24.2 - - - - - - - - - 1014.0 1014.0 -
13/04:00am 24.1 - - - - - - - - - 1013.7 1013.7 -
13/03:30am 24.2 - - - - - - - - - 1013.7 1013.7 -
13/03:00am 24.3 - - - - - - - - - 1013.9 1013.9 -
13/02:30am 24.3 - - - - - - - - - 1014.0 1014.0 -
13/02:00am 24.3 - - - - - - - - - 1013.9 1013.9 -
13/01:30am 24.3 - - - - - - - - - 1014.1 1014.1 -
13/01:00am 24.4 - - - - - - - - - 1014.5 1014.5 -
13/12:30am 24.4 - - - - - - - - - 1015.0 1015.0 -
13/12:00am 24.5 - - - - - - - - - 1015.6 1015.6 -

Other formats

Comma delimited format used in spreadsheet applications
http://www.bom.gov.au/fwo/IDQ60801/IDQ60801.94379.axf

JavaScript Object Notation format (JSON) in row-major order
http://www.bom.gov.au/fwo/IDQ60801/IDQ60801.94379.json

Data quality

Most of these data are generated automatically and are frequently updated. Quality checks on data are not normally performed. It is possible for incorrect values to appear. Refer to information at About Latest Weather Observations and please check the disclaimer before using these data.